Main page
METAR-TAF:

METAR-TAF

Airports :

Vannes Airport

Vannes, France

latitude: 47-43-19N, longitude: 2-43-41W, elevation: 130 m

Current weather observation

The report was made 16 minutes ago, at 09:30 UTC
Wind 6 kt from the North, varying between Northwest and North/Northeast
Temperature 16°C
Humidity 68%
Pressure 1010 hPa
Visibility 10 km or more
Few clouds at a height of 2100 ft

METAR: LFRV 190930Z AUTO 36006KT 310V030 9999 FEW021 16/10 Q1010

Time: 11:46 (09:46 UTC)


TAF: missing

Weather observations and forecasts of more than 4000 airports (METAR and TAF reports).

The available stations are represented by yellow and red dots on the map.

Hover mouse over dot to see the name of the station.

Then click to see weather observations and forecasts.

To change the map : click on the green buttons with a black cross to zoom in, on the green button with a dash to zoom out, or on the green arrows for adjacent maps.


METAR-TAF: